Montecanal, Spain
Current Conditions -  °F | °C
As of 12:00 PM on Saturday 25 Oct 2014 (Local Time) from LEZG Reporting Station
Clear Clear  
Wind Chill: 72°   Ceiling: Unl
Heat Index: 72°   Visibility: 6mi
Dew Point: 48°   Wind: 8mph
Humidity: 43%   Direction: 320°NW
Pressure: 30.15"   Gusts: NA
Location:  41.63°N, 0.94°W
Report Text: LEZG 251000Z 32007KT 290V350 CAVOK 22/09 Q1021
Loading
Personal Weather Stations






























Interactive Weather Map
Tropical Storm Tracking
New forecast layout! Learn more

10-Day Weather Forecast

Advertisements
Track Severe Weather on mobile